Dalton, WI (53926)

11:49 PM CDT on August 30, 2014 (GMT -0500)
Silver Lake Apartments | Change Station
CLOSE
Current Station
Personal Weather Station
Location: Portage, WI
Elevation: 830 ft
Nearby Weather Stations

Elev 830 ft 43.56 °N, 89.48 °W | Updated 17 seconds ago

Mostly Cloudy
Mostly Cloudy
66.9 °F
Feels Like 66.9 °F
N
0.0
Wind Variable Wind from NNE
Gusts 0.0 mph

Today
High -- | Low -- °F
--% Chance of Precip.
Yesterday
High -- | Low -- °F
Precip. -- in
6:18 AM 7:35 PM
Waxing Crescent, 27% visible
Pressure 29.88 in
Visibility 10.0 miles
Clouds Scattered Clouds 3600 ft
Dew Point 64 °F
Humidity 91%
Rainfall 0.29 in
Snow Depth Not available.
UV 0 out of 12
Pollen 2.90 out of 12
Air Quality Not available.
Flu Activity Not available.
METAR KY50 310356Z AUTO 02003KT 10SM SCT036 19/18 A2990 RMK AO2 PWINO TSNO T01940183 SLP118

More Conditions Fewer Conditions

Pressure 29.88 in
Visibility 10.0 miles
Clouds Scattered Clouds 3600 ft
Dew Point 64 °F
Humidity 91%
Rainfall 0.29 in
Snow Depth Not available.
UV 0 out of 12
Pollen 2.90 out of 12
Air Quality Not available.
Flu Activity Not available.
METAR KY50 310356Z AUTO 02003KT 10SM SCT036 19/18 A2990 RMK AO2 PWINO TSNO T01940183 SLP118

More Conditions Fewer Conditions

10-Day Weather Forecast

Almanac

Astronomy

Aug. 30, 2014 Rise Set
Actual Time 6:18 AM CDT 7:35 PM CDT
Civil Twilight 5:48 AM CDT 8:05 PM CDT
Nautical Twilight 5:12 AM CDT 8:40 PM CDT
Astronomical Twilight 4:34 AM CDT 9:18 PM CDT
Moon 11:15 AM CDT (8/30) 9:59 PM CDT (8/30)
Length of Visible Light 14h 16m
Length of Day
13h 17m
Tomorrow will be 2m 51s shorter.
Waxing Crescent, 27% of the Moon is Illuminated
Aug 31
Waxing Crescent
Sep 2
First Quarter
Sep 8
Full
Sep 15
Last Quarter
Sep 24
New

Yesterday's Extremes

State Highs State Lows

Community

WunderPhotos

Upload Photos

1,748,783 photos uploaded!

Nearby

Snow Depth

Station Depth Elevation
No new snow has been reported.

Earthquake Activity

City Distance Mag. Time & Date
No recent earthquake activity has been reported nearby.
Minimum magnitude displayed is 2.5.

Coastal Water Temperatures

Place Temperature
No Stations Reporting

Nearby Weather Stations